sensor_id;sensor_type;location;lat;lon;timestamp;pressure;altitude;pressure_sealevel;temperature;humidity
58761;BME280;44529;47.464;19.014;2023-04-01T00:02:18;98876.72;;;9.27;100.00
58761;BME280;44529;47.464;19.014;2023-04-01T00:05:21;98875.16;;;9.26;100.00
58761;BME280;44529;47.464;19.014;2023-04-01T00:08:26;98885.59;;;9.27;100.00
58761;BME280;44529;47.464;19.014;2023-04-01T00:11:29;98874.72;;;9.36;100.00
58761;BME280;44529;47.464;19.014;2023-04-01T00:14:31;98884.81;;;9.27;100.00
58761;BME280;44529;47.464;19.014;2023-04-01T00:17:33;98879.56;;;9.30;100.00
58761;BME280;44529;47.464;19.014;2023-04-01T00:20:36;98872.81;;;9.24;100.00
58761;BME280;44529;47.464;19.014;2023-04-01T00:23:38;98876.72;;;9.14;100.00
58761;BME280;44529;47.464;19.014;2023-04-01T00:26:41;98880.87;;;9.12;100.00
58761;BME280;44529;47.464;19.014;2023-04-01T00:29:45;98876.72;;;9.14;100.00
58761;BME280;44529;47.464;19.014;2023-04-01T00:32:51;98884.69;;;9.11;100.00
58761;BME280;44529;47.464;19.014;2023-04-01T00:35:54;98869.16;;;9.08;100.00
58761;BME280;44529;47.464;19.014;2023-04-01T00:38:57;98866.03;;;9.06;100.00
58761;BME280;44529;47.464;19.014;2023-04-01T00:42:02;98869.41;;;9.03;100.00
58761;BME280;44529;47.464;19.014;2023-04-01T00:48:36;98859.19;;;9.08;100.00
58761;BME280;44529;47.464;19.014;2023-04-01T00:51:41;98857.72;;;9.11;100.00
58761;BME280;44529;47.464;19.014;2023-04-01T00:54:47;98860.63;;;9.06;100.00
58761;BME280;44529;47.464;19.014;2023-04-01T00:57:52;98862.09;;;9.03;100.00
58761;BME280;44529;47.464;19.014;2023-04-01T01:00:56;98856.03;;;9.06;100.00
58761;BME280;44529;47.464;19.014;2023-04-01T01:04:01;98858.37;;;9.08;100.00
58761;BME280;44529;47.464;19.014;2023-04-01T01:10:48;98856.59;;;9.12;100.00
58761;BME280;44529;47.464;19.014;2023-04-01T01:17:28;98866.16;;;9.09;100.00
58761;BME280;44529;47.464;19.014;2023-04-01T01:27:23;98853.91;;;9.12;100.00
58761;BME280;44529;47.464;19.014;2023-04-01T01:33:47;98847.28;;;9.09;100.00
58761;BME280;44529;47.464;19.014;2023-04-01T01:36:58;98846.81;;;9.07;100.00
58761;BME280;44529;47.464;19.014;2023-04-01T01:40:06;98851.66;;;9.14;100.00
58761;BME280;44529;47.464;19.014;2023-04-01T01:43:13;98852.22;;;9.07;100.00
58761;BME280;44529;47.464;19.014;2023-04-01T01:46:19;98853.34;;;9.06;100.00
58761;BME280;44529;47.464;19.014;2023-04-01T01:49:24;98849.84;;;9.06;100.00
58761;BME280;44529;47.464;19.014;2023-04-01T01:52:27;98849.50;;;9.07;100.00
58761;BME280;44529;47.464;19.014;2023-04-01T01:55:34;98846.03;;;9.07;100.00
58761;BME280;44529;47.464;19.014;2023-04-01T01:58:41;98846.72;;;9.04;100.00
58761;BME280;44529;47.464;19.014;2023-04-01T02:01:49;98851.19;;;9.00;100.00
58761;BME280;44529;47.464;19.014;2023-04-01T02:04:53;98845.81;;;9.00;100.00
58761;BME280;44529;47.464;19.014;2023-04-01T02:08:30;98846.94;;;8.99;100.00
58761;BME280;44529;47.464;19.014;2023-04-01T02:11:49;98842.44;;;9.03;100.00
58761;BME280;44529;47.464;19.014;2023-04-01T02:17:59;98840.41;;;9.00;100.00
58761;BME280;44529;47.464;19.014;2023-04-01T02:21:03;98841.09;;;8.97;100.00
58761;BME280;44529;47.464;19.014;2023-04-01T02:24:11;98834.78;;;8.92;100.00
58761;BME280;44529;47.464;19.014;2023-04-01T02:27:15;98834.22;;;8.87;100.00
58761;BME280;44529;47.464;19.014;2023-04-01T02:30:18;98826.13;;;8.87;100.00
58761;BME280;44529;47.464;19.014;2023-04-01T02:33:21;98827.03;;;8.91;100.00
58761;BME280;44529;47.464;19.014;2023-04-01T02:36:24;98827.16;;;8.94;100.00
58761;BME280;44529;47.464;19.014;2023-04-01T02:39:27;98826.13;;;8.87;100.00
58761;BME280;44529;47.464;19.014;2023-04-01T02:42:29;98817.38;;;8.90;100.00
58761;BME280;44529;47.464;19.014;2023-04-01T02:45:32;98822.84;;;8.81;100.00
58761;BME280;44529;47.464;19.014;2023-04-01T02:48:35;98820.84;;;8.78;100.00
58761;BME280;44529;47.464;19.014;2023-04-01T02:51:37;98821.28;;;8.80;100.00
58761;BME280;44529;47.464;19.014;2023-04-01T02:54:39;98824.66;;;8.77;100.00
58761;BME280;44529;47.464;19.014;2023-04-01T02:57:42;98834.97;;;8.75;100.00
58761;BME280;44529;47.464;19.014;2023-04-01T03:00:44;98828.34;;;8.73;100.00
58761;BME280;44529;47.464;19.014;2023-04-01T03:03:47;98829.72;;;8.79;100.00
58761;BME280;44529;47.464;19.014;2023-04-01T03:06:49;98828.94;;;8.78;100.00
58761;BME280;44529;47.464;19.014;2023-04-01T03:09:52;98830.50;;;8.79;100.00
58761;BME280;44529;47.464;19.014;2023-04-01T03:12:55;98835.87;;;8.79;100.00
58761;BME280;44529;47.464;19.014;2023-04-01T03:15:57;98826.56;;;8.77;100.00
58761;BME280;44529;47.464;19.014;2023-04-01T03:18:59;98810.84;;;8.79;100.00
58761;BME280;44529;47.464;19.014;2023-04-01T03:22:04;98817.03;;;8.79;100.00
58761;BME280;44529;47.464;19.014;2023-04-01T03:25:07;98819.37;;;8.81;100.00
58761;BME280;44529;47.464;19.014;2023-04-01T03:28:10;98828.13;;;8.78;100.00
58761;BME280;44529;47.464;19.014;2023-04-01T03:31:12;98835.75;;;8.76;100.00
58761;BME280;44529;47.464;19.014;2023-04-01T03:34:16;98834.97;;;8.75;100.00
58761;BME280;44529;47.464;19.014;2023-04-01T03:37:18;98832.28;;;8.75;100.00
58761;BME280;44529;47.464;19.014;2023-04-01T03:40:21;98842.59;;;8.73;100.00
58761;BME280;44529;47.464;19.014;2023-04-01T03:43:23;98850.34;;;8.75;100.00
58761;BME280;44529;47.464;19.014;2023-04-01T03:46:26;98849.13;;;8.72;100.00
58761;BME280;44529;47.464;19.014;2023-04-01T03:49:28;98850.69;;;8.73;100.00
58761;BME280;44529;47.464;19.014;2023-04-01T03:52:31;98858.78;;;8.73;100.00
58761;BME280;44529;47.464;19.014;2023-04-01T03:55:33;98859.13;;;8.72;100.00
58761;BME280;44529;47.464;19.014;2023-04-01T03:58:37;98854.84;;;8.71;100.00
58761;BME280;44529;47.464;19.014;2023-04-01T04:01:41;98857.63;;;8.62;100.00
58761;BME280;44529;47.464;19.014;2023-04-01T04:04:43;98859.66;;;8.65;100.00
58761;BME280;44529;47.464;19.014;2023-04-01T04:07:46;98845.84;;;8.66;100.00
58761;BME280;44529;47.464;19.014;2023-04-01T04:10:55;98851.69;;;8.68;100.00
58761;BME280;44529;47.464;19.014;2023-04-01T04:13:57;98855.72;;;8.62;100.00
58761;BME280;44529;47.464;19.014;2023-04-01T04:17:00;98857.75;;;8.65;100.00
58761;BME280;44529;47.464;19.014;2023-04-01T04:20:03;98852.47;;;8.69;100.00
58761;BME280;44529;47.464;19.014;2023-04-01T04:23:06;98853.16;;;8.66;100.00
58761;BME280;44529;47.464;19.014;2023-04-01T04:26:11;98845.97;;;8.70;100.00
58761;BME280;44529;47.464;19.014;2023-04-01T04:29:14;98853.38;;;8.73;100.00
58761;BME280;44529;47.464;19.014;2023-04-01T04:32:17;98846.22;;;8.77;100.00
58761;BME280;44529;47.464;19.014;2023-04-01T04:35:19;98844.66;;;8.88;100.00
58761;BME280;44529;47.464;19.014;2023-04-01T04:38:22;98849.25;;;8.88;99.68
58761;BME280;44529;47.464;19.014;2023-04-01T04:41:24;98840.75;;;8.98;98.44
58761;BME280;44529;47.464;19.014;2023-04-01T04:44:27;98843.56;;;9.02;97.67
58761;BME280;44529;47.464;19.014;2023-04-01T04:47:31;98841.09;;;8.97;97.01
58761;BME280;44529;47.464;19.014;2023-04-01T04:50:33;98841.31;;;9.04;97.10
58761;BME280;44529;47.464;19.014;2023-04-01T04:53:35;98835.47;;;9.14;96.39
58761;BME280;44529;47.464;19.014;2023-04-01T04:56:37;98836.03;;;9.07;96.75
58761;BME280;44529;47.464;19.014;2023-04-01T04:59:40;98849.28;;;9.00;96.43
58761;BME280;44529;47.464;19.014;2023-04-01T05:02:43;98843.88;;;9.00;96.32
58761;BME280;44529;47.464;19.014;2023-04-01T05:05:51;98840.44;;;9.12;95.44
58761;BME280;44529;47.464;19.014;2023-04-01T05:08:53;98839.09;;;9.18;94.40
58761;BME280;44529;47.464;19.014;2023-04-01T05:11:57;98841.22;;;9.25;94.02
58761;BME280;44529;47.464;19.014;2023-04-01T05:15:00;98839.31;;;9.25;92.89
58761;BME280;44529;47.464;19.014;2023-04-01T05:18:03;98838.41;;;9.33;93.05
58761;BME280;44529;47.464;19.014;2023-04-01T05:21:07;98837.63;;;9.45;91.67
58761;BME280;44529;47.464;19.014;2023-04-01T05:24:10;98845.62;;;9.41;91.38
58761;BME280;44529;47.464;19.014;2023-04-01T05:27:13;98859.53;;;9.43;91.54
58761;BME280;44529;47.464;19.014;2023-04-01T05:30:15;98857.41;;;9.37;91.99
58761;BME280;44529;47.464;19.014;2023-04-01T05:33:18;98858.41;;;9.44;90.57
58761;BME280;44529;47.464;19.014;2023-04-01T05:36:21;98857.75;;;9.47;90.65
58761;BME280;44529;47.464;19.014;2023-04-01T05:39:24;98861.00;;;9.53;91.20
58761;BME280;44529;47.464;19.014;2023-04-01T05:42:27;98866.50;;;9.69;89.55
58761;BME280;44529;47.464;19.014;2023-04-01T05:45:29;98862.66;;;9.70;88.96
58761;BME280;44529;47.464;19.014;2023-04-01T05:48:35;98862.59;;;9.66;89.41
58761;BME280;44529;47.464;19.014;2023-04-01T05:51:37;98860.09;;;9.73;89.45
58761;BME280;44529;47.464;19.014;2023-04-01T05:54:39;98866.94;;;9.83;88.62
58761;BME280;44529;47.464;19.014;2023-04-01T05:57:42;98860.31;;;9.81;89.06
58761;BME280;44529;47.464;19.014;2023-04-01T06:00:44;98855.66;;;9.93;87.50
58761;BME280;44529;47.464;19.014;2023-04-01T06:03:50;98859.59;;;9.96;87.80
58761;BME280;44529;47.464;19.014;2023-04-01T06:06:53;98862.72;;;9.98;86.89
58761;BME280;44529;47.464;19.014;2023-04-01T06:09:55;98867.03;;;9.99;86.98
58761;BME280;44529;47.464;19.014;2023-04-01T06:13:07;98864.63;;;10.10;86.96
58761;BME280;44529;47.464;19.014;2023-04-01T06:16:31;98867.09;;;10.15;86.21
58761;BME280;44529;47.464;19.014;2023-04-01T06:19:48;98860.53;;;10.28;85.44
58761;BME280;44529;47.464;19.014;2023-04-01T06:32:45;98867.13;;;10.43;85.12
58761;BME280;44529;47.464;19.014;2023-04-01T06:39:32;98868.56;;;10.52;85.10
58761;BME280;44529;47.464;19.014;2023-04-01T06:53:32;98873.31;;;10.71;84.58
58761;BME280;44529;47.464;19.014;2023-04-01T06:56:45;98879.50;;;10.72;82.91
58761;BME280;44529;47.464;19.014;2023-04-01T06:59:50;98871.22;;;10.80;82.70
58761;BME280;44529;47.464;19.014;2023-04-01T07:06:04;98871.41;;;10.88;83.76
58761;BME280;44529;47.464;19.014;2023-04-01T07:09:16;98868.38;;;10.89;83.73
58761;BME280;44529;47.464;19.014;2023-04-01T07:12:34;98875.53;;;10.97;82.61
58761;BME280;44529;47.464;19.014;2023-04-01T07:15:58;98872.75;;;11.09;82.33
58761;BME280;44529;47.464;19.014;2023-04-01T07:19:13;98866.03;;;11.19;81.29
58761;BME280;44529;47.464;19.014;2023-04-01T07:22:42;98871.72;;;11.30;81.92
58761;BME280;44529;47.464;19.014;2023-04-01T07:25:52;98873.28;;;11.31;81.18
58761;BME280;44529;47.464;19.014;2023-04-01T07:28:56;98864.28;;;11.43;81.59
58761;BME280;44529;47.464;19.014;2023-04-01T07:49:04;98884.38;;;12.28;72.96
58761;BME280;44529;47.464;19.014;2023-04-01T08:05:25;98882.03;;;13.30;68.87
58761;BME280;44529;47.464;19.014;2023-04-01T08:15:28;98887.00;;;13.05;69.23
58761;BME280;44529;47.464;19.014;2023-04-01T08:21:43;98879.84;;;13.16;67.85
58761;BME280;44529;47.464;19.014;2023-04-01T08:24:49;98882.00;;;13.07;65.62
58761;BME280;44529;47.464;19.014;2023-04-01T08:31:15;98882.94;;;13.15;66.29
58761;BME280;44529;47.464;19.014;2023-04-01T08:34:21;98894.97;;;13.17;65.65
58761;BME280;44529;47.464;19.014;2023-04-01T08:37:30;98876.41;;;13.19;65.96
58761;BME280;44529;47.464;19.014;2023-04-01T08:46:56;98888.03;;;13.20;67.09
58761;BME280;44529;47.464;19.014;2023-04-01T08:50:23;98874.16;;;13.21;64.97
58761;BME280;44529;47.464;19.014;2023-04-01T08:57:32;98891.03;;;13.34;66.94
58761;BME280;44529;47.464;19.014;2023-04-01T09:00:53;98887.53;;;13.34;64.83
58761;BME280;44529;47.464;19.014;2023-04-01T09:18:09;98886.91;;;13.44;65.49
58761;BME280;44529;47.464;19.014;2023-04-01T09:21:24;98887.47;;;13.30;66.64
58761;BME280;44529;47.464;19.014;2023-04-01T09:24:58;98879.81;;;13.36;66.78
58761;BME280;44529;47.464;19.014;2023-04-01T09:28:10;98886.44;;;13.38;66.27
58761;BME280;44529;47.464;19.014;2023-04-01T09:41:30;98884.66;;;13.23;66.20
58761;BME280;44529;47.464;19.014;2023-04-01T09:44:44;98886.44;;;13.15;66.28
58761;BME280;44529;47.464;19.014;2023-04-01T10:32:22;98901.84;;;12.88;66.94
58761;BME280;44529;47.464;19.014;2023-04-01T10:39:33;98897.81;;;13.21;66.50
58761;BME280;44529;47.464;19.014;2023-04-01T10:49:46;98894.16;;;13.59;65.99
58761;BME280;44529;47.464;19.014;2023-04-01T10:53:27;98891.78;;;13.58;64.07
58761;BME280;44529;47.464;19.014;2023-04-01T10:56:54;98894.16;;;13.59;64.39
58761;BME280;44529;47.464;19.014;2023-04-01T11:07:09;98888.94;;;13.73;63.18
58761;BME280;44529;47.464;19.014;2023-04-01T11:34:32;98881.34;;;14.43;58.55
58761;BME280;44529;47.464;19.014;2023-04-01T11:44:44;98883.38;;;14.49;58.79
58761;BME280;44529;47.464;19.014;2023-04-01T11:48:13;98886.50;;;14.51;58.02
58761;BME280;44529;47.464;19.014;2023-04-01T11:54:51;98910.22;;;14.24;56.21
58761;BME280;44529;47.464;19.014;2023-04-01T12:15:00;98890.31;;;14.17;57.75
58761;BME280;44529;47.464;19.014;2023-04-01T12:18:21;98896.50;;;14.14;57.82
58761;BME280;44529;47.464;19.014;2023-04-01T12:24:49;98878.94;;;14.38;58.34
58761;BME280;44529;47.464;19.014;2023-04-01T12:31:27;98889.72;;;14.60;55.22
58761;BME280;44529;47.464;19.014;2023-04-01T12:38:08;98892.16;;;14.69;57.14
58761;BME280;44529;47.464;19.014;2023-04-01T12:51:24;98884.53;;;14.82;54.85
58761;BME280;44529;47.464;19.014;2023-04-01T12:58:35;98886.59;;;14.96;53.24
58761;BME280;44529;47.464;19.014;2023-04-01T13:12:06;98869.00;;;15.30;51.93
58761;BME280;44529;47.464;19.014;2023-04-01T13:15:52;98870.69;;;15.45;52.60
58761;BME280;44529;47.464;19.014;2023-04-01T13:19:14;98855.97;;;15.57;52.43
58761;BME280;44529;47.464;19.014;2023-04-01T13:25:53;98876.12;;;15.42;52.06
58761;BME280;44529;47.464;19.014;2023-04-01T13:29:23;98887.34;;;15.37;52.85
58761;BME280;44529;47.464;19.014;2023-04-01T13:32:36;98885.28;;;15.23;52.89
58761;BME280;44529;47.464;19.014;2023-04-01T13:35:51;98876.03;;;14.90;53.30
58761;BME280;44529;47.464;19.014;2023-04-01T13:42:19;98888.28;;;14.70;54.71
58761;BME280;44529;47.464;19.014;2023-04-01T13:45:26;98883.25;;;14.72;55.09
58761;BME280;44529;47.464;19.014;2023-04-01T13:58:43;98917.22;;;14.52;54.40
58761;BME280;44529;47.464;19.014;2023-04-01T14:09:44;98906.50;;;14.09;58.17
58761;BME280;44529;47.464;19.014;2023-04-01T14:22:29;98886.41;;;13.88;60.27
58761;BME280;44529;47.464;19.014;2023-04-01T14:25:55;98885.63;;;13.87;60.32
58761;BME280;44529;47.464;19.014;2023-04-01T14:36:35;98887.63;;;13.64;59.33
58761;BME280;44529;47.464;19.014;2023-04-01T14:43:10;98882.44;;;13.55;60.10
58761;BME280;44529;47.464;19.014;2023-04-01T14:49:42;98875.28;;;13.70;59.81
58761;BME280;44529;47.464;19.014;2023-04-01T14:52:55;98883.53;;;13.77;59.35
58761;BME280;44529;47.464;19.014;2023-04-01T14:56:01;98880.09;;;14.06;58.68
58761;BME280;44529;47.464;19.014;2023-04-01T14:59:17;98882.63;;;14.52;56.91
58761;BME280;44529;47.464;19.014;2023-04-01T15:05:52;98887.72;;;14.91;55.13
58761;BME280;44529;47.464;19.014;2023-04-01T15:22:06;98889.13;;;15.18;52.67
58761;BME280;44529;47.464;19.014;2023-04-01T15:25:38;98883.78;;;15.29;52.97
58761;BME280;44529;47.464;19.014;2023-04-01T15:36:09;98899.97;;;15.56;52.39
58761;BME280;44529;47.464;19.014;2023-04-01T15:53:01;98908.03;;;15.45;47.27
58761;BME280;44529;47.464;19.014;2023-04-01T15:59:24;98919.72;;;15.45;48.19
58761;BME280;44529;47.464;19.014;2023-04-01T16:06:11;98904.37;;;15.71;47.36
58761;BME280;44529;47.464;19.014;2023-04-01T16:13:12;98907.12;;;15.75;48.21
58761;BME280;44529;47.464;19.014;2023-04-01T16:19:51;98914.94;;;15.76;48.37
58761;BME280;44529;47.464;19.014;2023-04-01T16:23:01;98914.16;;;15.76;48.07
58761;BME280;44529;47.464;19.014;2023-04-01T16:29:46;98910.31;;;15.84;49.04
58761;BME280;44529;47.464;19.014;2023-04-01T16:32:54;98925.38;;;15.67;48.01
58761;BME280;44529;47.464;19.014;2023-04-01T16:36:13;98933.22;;;15.72;48.25
58761;BME280;44529;47.464;19.014;2023-04-01T16:39:50;98926.13;;;15.64;48.99
58761;BME280;44529;47.464;19.014;2023-04-01T16:43:12;98932.31;;;15.61;48.94
58761;BME280;44529;47.464;19.014;2023-04-01T16:46:32;98928.97;;;15.34;48.31
58761;BME280;44529;47.464;19.014;2023-04-01T16:49:56;98932.00;;;15.25;48.84
58761;BME280;44529;47.464;19.014;2023-04-01T16:53:10;98941.25;;;15.17;50.33
58761;BME280;44529;47.464;19.014;2023-04-01T16:56:28;98940.34;;;15.06;51.18
58761;BME280;44529;47.464;19.014;2023-04-01T17:03:28;98944.25;;;14.71;51.43
58761;BME280;44529;47.464;19.014;2023-04-01T17:07:15;98947.59;;;14.57;51.46
58761;BME280;44529;47.464;19.014;2023-04-01T17:27:01;98959.03;;;13.91;54.03
58761;BME280;44529;47.464;19.014;2023-04-01T17:30:17;98963.59;;;13.83;54.71
58761;BME280;44529;47.464;19.014;2023-04-01T17:40:11;98969.84;;;13.61;55.72
58761;BME280;44529;47.464;19.014;2023-04-01T17:57:09;98978.88;;;13.22;57.79
58761;BME280;44529;47.464;19.014;2023-04-01T18:11:08;99008.44;;;12.89;60.99
58761;BME280;44529;47.464;19.014;2023-04-01T18:21:45;99012.69;;;12.70;60.97
58761;BME280;44529;47.464;19.014;2023-04-01T18:24:58;99021.19;;;12.69;61.71
58761;BME280;44529;47.464;19.014;2023-04-01T18:28:21;99021.53;;;12.67;61.42
58761;BME280;44529;47.464;19.014;2023-04-01T18:31:33;99028.03;;;12.63;61.41
58761;BME280;44529;47.464;19.014;2023-04-01T18:34:47;99029.09;;;12.58;62.31
58761;BME280;44529;47.464;19.014;2023-04-01T18:38:12;99031.94;;;12.46;62.30
58761;BME280;44529;47.464;19.014;2023-04-01T18:44:45;99042.19;;;12.37;62.88
58761;BME280;44529;47.464;19.014;2023-04-01T18:48:14;99044.44;;;12.35;62.48
58761;BME280;44529;47.464;19.014;2023-04-01T18:51:25;99045.94;;;12.32;62.74
58761;BME280;44529;47.464;19.014;2023-04-01T18:54:45;99050.06;;;12.26;63.98
58761;BME280;44529;47.464;19.014;2023-04-01T18:58:31;99051.31;;;12.13;63.97
58761;BME280;44529;47.464;19.014;2023-04-01T19:01:39;99041.44;;;12.05;64.03
58761;BME280;44529;47.464;19.014;2023-04-01T19:04:57;99052.44;;;11.96;64.78
58761;BME280;44529;47.464;19.014;2023-04-01T19:18:25;99049.66;;;11.49;67.93
58761;BME280;44529;47.464;19.014;2023-04-01T19:21:47;99050.50;;;11.37;68.89
58761;BME280;44529;47.464;19.014;2023-04-01T19:25:14;99052.22;;;11.29;68.74
58761;BME280;44529;47.464;19.014;2023-04-01T19:35:44;99062.16;;;10.97;72.99
58761;BME280;44529;47.464;19.014;2023-04-01T19:38:58;99063.22;;;10.80;72.90
58761;BME280;44529;47.464;19.014;2023-04-01T19:43:18;99069.88;;;10.83;73.95
58761;BME280;44529;47.464;19.014;2023-04-01T19:52:33;99079.25;;;10.61;74.47
58761;BME280;44529;47.464;19.014;2023-04-01T19:56:11;99084.22;;;10.59;74.82
58761;BME280;44529;47.464;19.014;2023-04-01T20:12:58;99088.81;;;10.22;76.41
58761;BME280;44529;47.464;19.014;2023-04-01T20:16:06;99086.56;;;10.12;77.05
58761;BME280;44529;47.464;19.014;2023-04-01T20:19:10;99086.31;;;10.04;78.36
58761;BME280;44529;47.464;19.014;2023-04-01T20:22:24;99088.13;;;10.00;77.87
58761;BME280;44529;47.464;19.014;2023-04-01T20:25:42;99083.06;;;9.99;78.38
58761;BME280;44529;47.464;19.014;2023-04-01T20:36:26;99085.16;;;9.81;80.00
58761;BME280;44529;47.464;19.014;2023-04-01T20:46:56;99090.31;;;9.74;80.05
58761;BME280;44529;47.464;19.014;2023-04-01T20:57:16;99109.00;;;9.46;82.27
58761;BME280;44529;47.464;19.014;2023-04-01T21:01:44;99115.66;;;9.48;82.44
58761;BME280;44529;47.464;19.014;2023-04-01T21:07:50;99114.63;;;9.41;82.90
58761;BME280;44529;47.464;19.014;2023-04-01T21:11:04;99110.13;;;9.45;83.01
58761;BME280;44529;47.464;19.014;2023-04-01T21:14:42;99114.72;;;9.44;83.41
58761;BME280;44529;47.464;19.014;2023-04-01T21:18:16;99117.69;;;9.52;82.65
58761;BME280;44529;47.464;19.014;2023-04-01T21:28:34;99125.47;;;9.32;83.84
58761;BME280;44529;47.464;19.014;2023-04-01T21:31:53;99128.16;;;9.32;83.64
58761;BME280;44529;47.464;19.014;2023-04-01T21:42:37;99136.44;;;9.27;83.65
58761;BME280;44529;47.464;19.014;2023-04-01T21:49:29;99133.28;;;9.25;81.99
58761;BME280;44529;47.464;19.014;2023-04-01T21:53:08;99133.56;;;9.32;82.47
58761;BME280;44529;47.464;19.014;2023-04-01T22:13:21;99140.28;;;9.59;79.49
58761;BME280;44529;47.464;19.014;2023-04-01T22:16:43;99139.25;;;9.52;79.22
58761;BME280;44529;47.464;19.014;2023-04-01T22:20:10;99134.13;;;9.59;79.47
58761;BME280;44529;47.464;19.014;2023-04-01T22:23:32;99146.72;;;9.55;80.16
58761;BME280;44529;47.464;19.014;2023-04-01T22:26:50;99146.75;;;9.67;79.09
58761;BME280;44529;47.464;19.014;2023-04-01T22:33:12;99146.19;;;9.61;78.76
58761;BME280;44529;47.464;19.014;2023-04-01T22:42:44;99156.13;;;9.48;79.06
58761;BME280;44529;47.464;19.014;2023-04-01T22:46:13;99163.34;;;9.57;79.07
58761;BME280;44529;47.464;19.014;2023-04-01T22:49:26;99159.00;;;9.64;78.94
58761;BME280;44529;47.464;19.014;2023-04-01T22:52:34;99167.47;;;9.75;79.05
58761;BME280;44529;47.464;19.014;2023-04-01T22:55:42;99177.03;;;10.06;77.30
58761;BME280;44529;47.464;19.014;2023-04-01T22:59:13;99169.59;;;10.15;76.28
58761;BME280;44529;47.464;19.014;2023-04-01T23:02:25;99173.44;;;10.14;76.40
58761;BME280;44529;47.464;19.014;2023-04-01T23:05:30;99179.97;;;10.13;76.99
58761;BME280;44529;47.464;19.014;2023-04-01T23:11:51;99194.22;;;10.01;76.43
58761;BME280;44529;47.464;19.014;2023-04-01T23:15:00;99194.03;;;9.85;77.62
58761;BME280;44529;47.464;19.014;2023-04-01T23:18:22;99185.25;;;9.76;77.60
58761;BME280;44529;47.464;19.014;2023-04-01T23:21:32;99182.75;;;9.71;80.12
58761;BME280;44529;47.464;19.014;2023-04-01T23:24:44;99200.94;;;9.62;79.04
58761;BME280;44529;47.464;19.014;2023-04-01T23:31:01;99212.28;;;9.34;81.18
58761;BME280;44529;47.464;19.014;2023-04-01T23:37:15;99208.97;;;9.29;81.62
58761;BME280;44529;47.464;19.014;2023-04-01T23:40:20;99212.78;;;9.28;81.53
58761;BME280;44529;47.464;19.014;2023-04-01T23:43:26;99231.16;;;9.34;81.10
58761;BME280;44529;47.464;19.014;2023-04-01T23:46:32;99225.28;;;9.32;81.75
58761;BME280;44529;47.464;19.014;2023-04-01T23:49:39;99229.25;;;9.35;81.11
58761;BME280;44529;47.464;19.014;2023-04-01T23:52:48;99243.97;;;9.37;81.34
58761;BME280;44529;47.464;19.014;2023-04-01T23:55:52;99244.13;;;9.41;81.57
58761;BME280;44529;47.464;19.014;2023-04-01T23:58:55;99240.34;;;9.33;81.83
